Time;durP1;ratioP1;P1;durP2;ratioP2;P2;SDS_P1;SDS_P2;PMS_P1;PMS_P2;Temp;Humidity;BMP_temperature;BMP_pressure;BME280_temperature;BME280_humidity;BME280_pressure;Samples;Min_cycle;Max_cycle;Signal;HPM_P1;HPM_P2
2023/08/11 00:00:13;;;;;;;11.75;6.63;;;16.70;99.90;;;;;;5056811;28;20090;-67
2023/08/11 00:02:40;;;;;;;9.55;6.05;;;;;;;;;;5041714;28;20059;-67
2023/08/11 00:05:07;;;;;;;11.50;7.00;;;16.80;99.90;;;;;;5053606;28;20037;-66
2023/08/11 00:07:34;;;;;;;13.43;7.65;;;;;;;;;;5042700;28;20045;-68
2023/08/11 00:10:00;;;;;;;10.13;7.30;;;;;;;;;;5056176;28;20503;-67
2023/08/11 00:12:26;;;;;;;11.50;7.35;;;;;;;;;;5054446;28;20482;-66
2023/08/11 00:14:52;;;;;;;12.13;7.93;;;16.50;99.90;;;;;;5045919;28;20059;-66
2023/08/11 00:17:19;;;;;;;10.35;8.65;;;;;;;;;;5048062;28;20052;-68
2023/08/11 00:19:45;;;;;;;12.27;7.75;;;;;;;;;;5058486;28;20040;-68
2023/08/11 00:22:11;;;;;;;13.80;8.00;;;;;;;;;;5058833;28;20509;-66
2023/08/11 00:24:36;;;;;;;11.65;8.30;;;;;;;;;;5057989;28;20054;-66
2023/08/11 00:27:02;;;;;;;10.35;7.97;;;16.30;99.90;;;;;;5056647;28;20058;-66
2023/08/11 00:29:28;;;;;;;11.40;8.23;;;;;;;;;;5054809;28;20479;-67
2023/08/11 00:31:56;;;;;;;14.15;8.38;;;16.10;99.90;;;;;;5045299;28;20051;-66
2023/08/11 00:34:22;;;;;;;11.85;8.35;;;;;;;;;;5058742;28;20048;-67
2023/08/11 00:36:48;;;;;;;12.35;7.85;;;;;;;;;;5063144;28;20043;-66
2023/08/11 00:39:15;;;;;;;14.20;8.57;;;;;;;;;;5066208;28;20404;-67
2023/08/11 00:41:41;;;;;;;10.98;8.10;;;;;;;;;;5065380;28;20040;-66
2023/08/11 00:44:07;;;;;;;13.00;9.43;;;16.30;99.90;;;;;;5051989;28;20098;-66
2023/08/11 00:46:33;;;;;;;13.15;9.85;;;;;;;;;;5049988;28;20043;-66
2023/08/11 00:48:59;;;;;;;15.88;10.60;;;16.40;99.90;;;;;;5061519;28;20032;-66
2023/08/11 00:51:25;;;;;;;14.07;10.60;;;;;;;;;;5057215;28;20183;-66
2023/08/11 00:53:51;;;;;;;15.15;10.57;;;16.10;99.90;;;;;;5055779;28;20093;-66
2023/08/11 00:56:22;;;;;;;15.93;10.77;;;16.40;99.90;;;;;;5067917;28;20093;-66
2023/08/11 00:58:49;;;;;;;16.73;11.23;;;16.40;99.90;;;;;;5065945;28;20044;-67
2023/08/11 01:01:15;;;;;;;18.10;11.13;;;;;;;;;;5062568;28;20037;-66
2023/08/11 01:03:43;;;;;;;17.35;11.43;;;;;;;;;;5055724;28;20103;-66
2023/08/11 01:06:22;;;;;;;16.00;11.13;;;16.10;99.90;;;;;;5034476;28;20056;-66
2023/08/11 01:08:58;;;;;;;22.13;12.38;;;16.20;99.90;;;;;;5042433;28;20073;-66
2023/08/11 01:11:49;;;;;;;21.80;14.27;;;16.10;99.90;;;;;;5058130;28;20036;-66
2023/08/11 01:14:23;;;;;;;20.60;14.38;;;16.00;99.90;;;;;;5066197;28;20052;-67
2023/08/11 01:16:51;;;;;;;17.27;13.15;;;16.10;99.90;;;;;;5062867;28;20170;-66
2023/08/11 01:19:34;;;;;;;17.77;14.35;;;16.30;99.90;;;;;;5051927;28;20116;-66
2023/08/11 01:22:01;;;;;;;23.52;15.75;;;16.30;99.90;;;;;;5040850;28;20124;-66
2023/08/11 01:24:29;;;;;;;20.50;14.77;;;16.20;99.90;;;;;;5059901;28;20517;-67
2023/08/11 01:26:55;;;;;;;25.00;15.82;;;16.30;99.90;;;;;;5059131;28;20083;-66
2023/08/11 01:29:21;;;;;;;18.85;14.65;;;;;;;;;;5061140;28;20080;-66
2023/08/11 01:31:47;;;;;;;23.85;17.05;;;;;;;;;;5059634;28;20095;-66
2023/08/11 01:34:13;;;;;;;22.15;17.50;;;;;;;;;;5050277;28;20055;-66
2023/08/11 01:36:41;;;;;;;22.15;15.65;;;16.10;99.90;;;;;;5067113;28;20044;-65
2023/08/11 01:39:09;;;;;;;21.55;16.23;;;;;;;;;;5061556;28;20830;-66
2023/08/11 01:41:35;;;;;;;20.65;15.35;;;;;;;;;;5047731;28;20053;-66
2023/08/11 01:44:02;;;;;;;17.90;14.95;;;16.20;99.90;;;;;;5048648;28;20048;-66
2023/08/11 01:46:28;;;;;;;19.48;15.25;;;16.20;99.90;;;;;;5035358;28;20395;-66
2023/08/11 01:48:56;;;;;;;20.80;14.85;;;16.30;99.90;;;;;;5064917;28;20084;-65
2023/08/11 01:51:23;;;;;;;18.20;15.43;;;16.10;99.90;;;;;;5048865;28;20111;-66
2023/08/11 01:53:50;;;;;;;19.92;14.77;;;16.10;99.90;;;;;;5057496;28;20071;-66
2023/08/11 01:56:16;;;;;;;19.42;15.60;;;;;;;;;;5035798;28;20044;-66
2023/08/11 01:58:41;;;;;;;20.42;14.30;;;15.90;99.90;;;;;;5053442;28;20040;-66
2023/08/11 02:01:07;;;;;;;25.08;16.83;;;;;;;;;;5062418;28;20036;-66
2023/08/11 02:03:33;;;;;;;22.10;15.63;;;16.20;99.90;;;;;;5062910;28;20128;-66
2023/08/11 02:05:59;;;;;;;19.73;15.23;;;;;;;;;;5037986;28;20095;-66
2023/08/11 02:08:25;;;;;;;18.85;14.43;;;;;;;;;;5057352;28;20033;-66
2023/08/11 02:10:52;;;;;;;22.73;15.35;;;;;;;;;;5059115;28;20045;-66
2023/08/11 02:13:19;;;;;;;19.75;15.25;;;15.90;99.90;;;;;;5057084;28;20445;-66
2023/08/11 02:15:44;;;;;;;18.55;13.95;;;16.00;99.90;;;;;;5049946;28;20074;-66
2023/08/11 02:18:10;;;;;;;17.40;13.77;;;;;;;;;;5024971;28;20062;-66
2023/08/11 02:20:36;;;;;;;20.70;15.55;;;;;;;;;;5060106;28;20040;-67
2023/08/11 02:23:02;;;;;;;20.70;15.68;;;;;;;;;;5056367;28;20084;-67
2023/08/11 02:25:28;;;;;;;18.25;14.25;;;16.00;99.90;;;;;;5052329;28;20041;-67
2023/08/11 02:27:54;;;;;;;21.52;14.07;;;;;;;;;;5044902;28;20102;-67
2023/08/11 02:30:22;;;;;;;20.05;14.48;;;;;;;;;;5055638;28;20143;-66
2023/08/11 02:32:47;;;;;;;17.75;14.40;;;15.90;99.90;;;;;;5057367;28;20086;-66
2023/08/11 02:35:14;;;;;;;19.13;14.55;;;;;;;;;;5040708;28;20041;-67
2023/08/11 02:37:40;;;;;;;19.42;15.68;;;16.00;99.90;;;;;;5043623;28;20051;-66
2023/08/11 02:40:10;;;;;;;19.90;15.02;;;15.80;99.90;;;;;;5053815;28;20053;-66
2023/08/11 02:42:38;;;;;;;21.05;15.65;;;15.60;99.90;;;;;;5031476;28;20817;-67
2023/08/11 02:45:08;;;;;;;18.88;14.60;;;15.70;99.90;;;;;;5054237;28;20044;-66
2023/08/11 02:47:34;;;;;;;19.02;15.95;;;;;;;;;;5040190;28;20044;-67
2023/08/11 02:50:00;;;;;;;18.02;14.38;;;;;;;;;;5056582;28;20052;-66
2023/08/11 02:52:26;;;;;;;20.80;14.02;;;;;;;;;;5058881;28;20108;-67
2023/08/11 02:54:52;;;;;;;22.80;14.38;;;;;;;;;;5034176;28;20084;-67
2023/08/11 02:57:17;;;;;;;15.98;13.63;;;15.70;99.90;;;;;;5056249;28;20067;-67
2023/08/11 02:59:45;;;;;;;18.15;13.70;;;;;;;;;;5037008;28;20495;-66
2023/08/11 03:02:11;;;;;;;18.90;13.98;;;;;;;;;;5042368;28;20441;-66
2023/08/11 03:04:37;;;;;;;18.17;12.70;;;;;;;;;;5056079;28;20056;-66
2023/08/11 03:07:05;;;;;;;17.33;13.30;;;15.80;99.90;;;;;;5038270;28;20115;-67
2023/08/11 03:09:32;;;;;;;15.48;12.18;;;;;;;;;;5055557;28;20150;-68
2023/08/11 03:11:58;;;;;;;16.73;13.20;;;;;;;;;;5052653;28;20056;-68
2023/08/11 03:14:24;;;;;;;18.77;12.73;;;;;;;;;;5036254;28;20045;-67
2023/08/11 03:16:49;;;;;;;17.58;12.88;;;15.90;99.90;;;;;;5060196;28;20080;-66
2023/08/11 03:19:15;;;;;;;17.65;12.40;;;;;;;;;;5057774;28;20493;-67
2023/08/11 03:21:41;;;;;;;15.85;12.68;;;;;;;;;;5057748;28;20037;-67
2023/08/11 03:24:07;;;;;;;14.60;11.98;;;;;;;;;;5037751;28;20052;-67
2023/08/11 03:26:33;;;;;;;18.55;12.15;;;15.80;99.90;;;;;;5049926;28;20056;-66
2023/08/11 03:28:59;;;;;;;15.50;12.50;;;;;;;;;;5054525;28;20149;-66
2023/08/11 03:31:25;;;;;;;14.98;11.65;;;;;;;;;;5061109;28;20071;-67
2023/08/11 03:33:51;;;;;;;15.80;12.20;;;16.00;99.90;;;;;;5051783;28;20045;-67
2023/08/11 03:36:17;;;;;;;16.17;12.18;;;;;;;;;;5041318;28;20048;-67
2023/08/11 03:38:43;;;;;;;18.02;11.95;;;;;;;;;;5044887;28;20059;-66
2023/08/11 03:41:09;;;;;;;14.38;11.50;;;;;;;;;;5038093;28;20060;-66
2023/08/11 03:43:35;;;;;;;15.18;11.70;;;;;;;;;;5040500;28;20044;-67
2023/08/11 03:46:01;;;;;;;19.20;12.73;;;;;;;;;;5053054;28;20044;-66
2023/08/11 03:48:27;;;;;;;17.00;12.27;;;;;;;;;;5035484;28;20040;-67
2023/08/11 03:50:53;;;;;;;17.00;12.30;;;;;;;;;;5041582;28;20066;-66
2023/08/11 03:53:19;;;;;;;18.85;13.27;;;;;;;;;;5057647;28;20414;-66
2023/08/11 03:55:47;;;;;;;14.90;11.80;;;;;;;;;;5034618;28;20056;-68
2023/08/11 03:58:14;;;;;;;15.43;12.57;;;;;;;;;;5053978;28;20045;-66
2023/08/11 04:00:40;;;;;;;14.55;12.32;;;;;;;;;;5030972;28;20060;-67
2023/08/11 04:03:09;;;;;;;18.73;13.15;;;;;;;;;;5041656;28;20049;-66
2023/08/11 04:05:35;;;;;;;16.65;12.75;;;15.90;99.90;;;;;;5058062;28;20056;-67
2023/08/11 04:08:01;;;;;;;18.05;12.73;;;;;;;;;;5036382;28;20041;-67
2023/08/11 04:10:27;;;;;;;17.80;13.30;;;;;;;;;;5059444;28;20406;-66
2023/08/11 04:12:53;;;;;;;16.48;13.23;;;;;;;;;;5058695;28;20045;-66
2023/08/11 04:15:19;;;;;;;15.68;13.68;;;;;;;;;;5043707;28;20557;-67
2023/08/11 04:17:45;;;;;;;18.98;13.07;;;15.70;99.90;;;;;;5061245;28;20044;-66
2023/08/11 04:20:14;;;;;;;16.40;12.23;;;15.80;99.90;;;;;;5057076;28;20037;-66
2023/08/11 04:22:41;;;;;;;14.85;13.30;;;15.90;99.90;;;;;;5057130;28;20529;-67
2023/08/11 04:25:09;;;;;;;15.35;12.70;;;15.60;99.90;;;;;;5038229;28;20103;-67
2023/08/11 04:27:35;;;;;;;16.10;13.30;;;;;;;;;;5041422;28;20800;-67
2023/08/11 04:30:00;;;;;;;18.90;13.82;;;15.80;99.90;;;;;;5038859;28;20041;-67
2023/08/11 04:32:26;;;;;;;20.38;13.85;;;;;;;;;;5058806;28;20037;-66
2023/08/11 04:34:52;;;;;;;20.38;13.93;;;;;;;;;;5061524;28;20110;-67
2023/08/11 04:37:18;;;;;;;18.83;13.82;;;;;;;;;;5041694;28;20689;-66
2023/08/11 04:39:44;;;;;;;18.27;12.60;;;;;;;;;;5059392;28;20127;-67
2023/08/11 04:42:10;;;;;;;15.63;12.30;;;;;;;;;;5058971;28;20112;-67
2023/08/11 04:44:36;;;;;;;15.52;11.63;;;;;;;;;;5063333;28;20045;-67
2023/08/11 04:47:02;;;;;;;15.00;11.95;;;;;;;;;;5042153;28;20045;-67
2023/08/11 04:49:28;;;;;;;14.10;11.85;;;;;;;;;;5028970;28;20134;-66
2023/08/11 04:51:54;;;;;;;20.52;13.73;;;;;;;;;;5050282;28;20098;-67
2023/08/11 04:54:20;;;;;;;18.92;11.73;;;;;;;;;;5065478;28;20789;-67
2023/08/11 04:56:46;;;;;;;14.73;11.88;;;15.80;99.90;;;;;;5066479;28;20040;-67
2023/08/11 04:59:12;;;;;;;21.02;12.75;;;15.90;99.90;;;;;;5060438;28;20047;-67
2023/08/11 05:01:37;;;;;;;17.23;12.60;;;15.90;99.90;;;;;;5069562;28;20054;-67
2023/08/11 05:04:04;;;;;;;16.13;12.52;;;;;;;;;;5066712;28;20045;-67
2023/08/11 05:06:31;;;;;;;13.07;10.13;;;;;;;;;;5040586;28;20041;-66
2023/08/11 05:08:57;;;;;;;15.20;11.63;;;;;;;;;;5067537;28;20046;-67
2023/08/11 05:11:22;;;;;;;14.55;11.15;;;15.90;99.90;;;;;;5040718;28;20083;-67
2023/08/11 05:13:48;;;;;;;12.85;10.20;;;;;;;;;;5050359;28;20079;-67
2023/08/11 05:16:14;;;;;;;17.90;11.82;;;;;;;;;;5049086;28;20040;-67
2023/08/11 05:18:40;;;;;;;12.80;10.90;;;16.20;99.90;;;;;;5048945;28;20093;-65
2023/08/11 05:21:06;;;;;;;18.75;11.73;;;;;;;;;;5044384;28;20037;-67
2023/08/11 05:23:32;;;;;;;13.98;10.77;;;15.90;99.90;;;;;;5047987;28;20086;-66
2023/08/11 05:25:58;;;;;;;15.77;10.52;;;;;;;;;;5063072;28;20040;-68
2023/08/11 05:28:24;;;;;;;16.63;11.57;;;;;;;;;;5034468;28;20079;-66
2023/08/11 05:30:50;;;;;;;15.10;11.05;;;;;;;;;;5059424;28;20037;-66
2023/08/11 05:33:16;;;;;;;12.82;10.15;;;;;;;;;;5042543;28;20509;-66
2023/08/11 05:35:42;;;;;;;16.00;10.90;;;;;;;;;;5046387;28;20125;-67
2023/08/11 05:38:08;;;;;;;12.63;9.80;;;;;;;;;;5061895;28;20036;-65
2023/08/11 05:40:34;;;;;;;12.18;10.25;;;;;;;;;;5064749;28;20080;-65
2023/08/11 05:43:00;;;;;;;14.55;9.63;;;;;;;;;;5061209;28;20560;-66
2023/08/11 05:45:26;;;;;;;11.50;9.00;;;;;;;;;;5061066;28;20040;-68
2023/08/11 05:47:52;;;;;;;13.18;9.65;;;;;;;;;;5058944;28;20033;-67
2023/08/11 05:50:33;;;;;;;9.52;7.55;;;17.30;99.90;;;;;;5053862;28;20090;-66
2023/08/11 05:52:59;;;;;;;8.23;6.72;;;;;;;;;;5060672;28;20519;-67
2023/08/11 05:55:25;;;;;;;10.85;7.25;;;;;;;;;;5041946;28;20094;-67
2023/08/11 05:57:51;;;;;;;10.98;6.40;;;;;;;;;;5057249;28;20041;-66
2023/08/11 06:00:18;;;;;;;10.27;6.55;;;18.80;99.90;;;;;;5037599;28;20051;-65
2023/08/11 06:02:45;;;;;;;10.32;6.68;;;18.80;99.90;;;;;;5043354;28;20052;-67
2023/08/11 06:05:15;;;;;;;8.38;6.50;;;18.90;99.90;;;;;;5052427;28;20045;-66
2023/08/11 06:07:41;;;;;;;9.38;6.10;;;;;;;;;;5039160;28;20072;-65
2023/08/11 06:10:07;;;;;;;7.57;5.35;;;19.90;99.90;;;;;;5042483;28;20041;-66
2023/08/11 06:12:33;;;;;;;7.18;4.97;;;;;;;;;;5065838;28;20907;-67
2023/08/11 06:14:59;;;;;;;9.85;5.15;;;21.00;99.90;;;;;;5042624;28;20591;-68
2023/08/11 06:17:25;;;;;;;7.93;4.85;;;21.70;99.90;;;;;;5041371;28;20115;-67
2023/08/11 06:19:51;;;;;;;7.53;4.00;;;22.10;99.90;;;;;;5033914;28;20052;-67
2023/08/11 06:22:16;;;;;;;4.97;3.80;;;22.50;99.90;;;;;;5038106;28;20049;-66
2023/08/11 06:24:42;;;;;;;5.13;3.80;;;22.60;99.90;;;;;;5062939;28;20048;-66
2023/08/11 06:27:09;;;;;;;5.80;4.65;;;22.90;99.90;;;;;;5044487;28;20039;-68
2023/08/11 06:29:35;;;;;;;6.95;4.30;;;25.10;99.90;;;;;;5043797;28;20064;-68
2023/08/11 06:32:01;;;;;;;5.28;3.55;;;24.20;99.90;;;;;;5047285;28;20486;-67
2023/08/11 06:34:27;;;;;;;5.43;3.50;;;24.40;99.90;;;;;;5064625;28;20048;-67
2023/08/11 06:36:53;;;;;;;5.95;3.40;;;26.00;99.90;;;;;;5066355;28;20047;-68
2023/08/11 06:39:19;;;;;;;7.72;4.03;;;26.40;99.90;;;;;;5041284;28;20060;-67
2023/08/11 06:41:45;;;;;;;4.70;3.13;;;25.10;99.90;;;;;;5066451;28;20118;-68
2023/08/11 06:44:10;;;;;;;7.47;2.92;;;25.40;99.90;;;;;;5057928;28;20140;-68
2023/08/11 06:46:36;;;;;;;6.45;2.95;;;27.30;99.90;;;;;;5067118;28;20142;-69
2023/08/11 06:49:02;;;;;;;5.15;2.95;;;26.20;99.90;;;;;;5050522;28;20120;-67
2023/08/11 06:51:28;;;;;;;6.88;3.10;;;25.80;99.90;;;;;;5064263;28;20039;-68
2023/08/11 06:53:53;;;;;;;4.47;2.72;;;26.40;99.90;;;;;;5062007;28;20856;-67
2023/08/11 06:56:19;;;;;;;5.00;2.70;;;26.30;99.90;;;;;;5042078;28;20517;-71
2023/08/11 06:58:45;;;;;;;4.75;2.60;;;27.70;99.90;;;;;;5055288;28;20037;-68
2023/08/11 07:01:11;;;;;;;5.85;2.45;;;27.50;99.90;;;;;;5054886;28;20044;-68
2023/08/11 07:03:36;;;;;;;4.93;2.53;;;27.00;99.90;;;;;;5055502;28;20052;-68
2023/08/11 07:06:02;;;;;;;4.38;2.63;;;28.10;99.90;;;;;;5041426;28;20037;-68
2023/08/11 07:08:29;;;;;;;7.80;2.92;;;26.40;99.90;;;;;;5040797;28;20041;-69
2023/08/11 07:10:54;;;;;;;6.13;3.33;;;25.10;99.90;;;;;;5054471;28;20044;-69
2023/08/11 07:13:20;;;;;;;5.47;2.80;;;24.60;99.90;;;;;;5041462;28;20091;-68
2023/08/11 07:15:45;;;;;;;8.25;2.95;;;23.90;99.90;;;;;;5061708;28;20066;-67
2023/08/11 07:18:11;;;;;;;6.68;3.00;;;23.40;99.90;;;;;;5064504;28;20032;-67
2023/08/11 07:20:43;;;;;;;5.75;3.28;;;22.70;99.90;;;;;;5059593;28;20048;-66
2023/08/11 07:23:09;;;;;;;5.25;3.00;;;22.50;99.90;;;;;;5060215;28;20482;-68
2023/08/11 07:25:35;;;;;;;5.35;2.60;;;22.10;99.90;;;;;;5038504;28;20102;-68
2023/08/11 07:28:01;;;;;;;6.00;2.88;;;22.00;99.90;;;;;;5058799;28;20615;-69
2023/08/11 07:30:29;;;;;;;6.57;3.67;;;22.60;99.90;;;;;;5051539;28;20040;-68
2023/08/11 07:32:55;;;;;;;4.68;3.03;;;22.30;99.90;;;;;;5044370;28;20044;-67
2023/08/11 07:35:21;;;;;;;7.65;3.28;;;21.50;99.90;;;;;;5059471;28;20063;-66
2023/08/11 07:37:47;;;;;;;10.80;3.40;;;21.60;99.90;;;;;;5056866;28;20040;-65
2023/08/11 07:40:12;;;;;;;6.97;2.92;;;21.40;99.90;;;;;;5043537;28;20131;-66
2023/08/11 07:42:38;;;;;;;5.93;3.28;;;21.30;99.90;;;;;;5043545;28;20098;-66
2023/08/11 07:45:04;;;;;;;7.55;3.33;;;21.50;99.90;;;;;;5041973;28;20099;-66
2023/08/11 07:47:30;;;;;;;7.32;3.28;;;21.40;99.90;;;;;;5054120;28;20048;-67
2023/08/11 07:49:55;;;;;;;7.63;3.67;;;21.30;99.90;;;;;;5056859;28;20037;-67
2023/08/11 07:52:21;;;;;;;4.75;2.70;;;21.60;99.90;;;;;;5061689;28;20044;-67
2023/08/11 07:54:47;;;;;;;10.35;4.55;;;21.20;99.90;;;;;;5057473;28;20064;-67
2023/08/11 07:57:12;;;;;;;6.03;2.92;;;21.50;99.90;;;;;;5062687;28;20044;-67
2023/08/11 07:59:38;;;;;;;4.40;2.72;;;21.40;99.90;;;;;;5054603;28;20036;-67
2023/08/11 08:02:03;;;;;;;7.43;3.65;;;21.40;99.90;;;;;;5045965;28;20491;-65
2023/08/11 08:04:29;;;;;;;7.40;3.17;;;21.60;99.90;;;;;;5056054;28;20119;-66
2023/08/11 08:06:57;;;;;;;5.65;3.38;;;21.80;99.90;;;;;;5059304;28;20052;-67
2023/08/11 08:09:23;;;;;;;5.07;3.72;;;21.70;99.90;;;;;;5062163;28;20037;-66
2023/08/11 08:11:48;;;;;;;5.28;2.83;;;21.80;99.90;;;;;;5040109;28;20475;-66
2023/08/11 08:14:14;;;;;;;5.93;3.10;;;22.00;99.90;;;;;;5043972;28;20040;-67
2023/08/11 08:16:47;;;;;;;5.50;3.40;;;23.50;99.90;;;;;;5044325;28;20060;-66
2023/08/11 08:19:14;;;;;;;10.68;3.35;;;21.80;99.90;;;;;;5043264;28;20040;-68
2023/08/11 08:21:41;;;;;;;6.28;3.45;;;23.20;99.90;;;;;;5042970;28;20778;-67
2023/08/11 08:24:07;;;;;;;6.80;3.33;;;22.10;99.90;;;;;;5046864;28;20044;-67
2023/08/11 08:26:34;;;;;;;12.65;3.80;;;21.90;99.90;;;;;;5054271;28;20041;-67
2023/08/11 08:29:00;;;;;;;5.97;3.83;;;24.20;99.90;;;;;;5043663;28;20045;-67
2023/08/11 08:31:28;;;;;;;7.40;3.53;;;22.00;99.90;;;;;;5043587;28;20040;-68
2023/08/11 08:33:54;;;;;;;5.70;3.50;;;23.60;99.90;;;;;;5044785;28;20045;-67
2023/08/11 08:36:20;;;;;;;6.93;3.67;;;22.10;99.90;;;;;;5049859;28;20052;-67
2023/08/11 08:38:46;;;;;;;6.15;3.40;;;22.00;99.90;;;;;;5039348;28;20060;-69
2023/08/11 08:41:17;;;;;;;8.70;3.78;;;22.10;99.90;;;;;;5061891;28;20692;-67
2023/08/11 08:43:43;;;;;;;3.88;3.22;;;22.00;99.90;;;;;;5040513;28;20048;-66
2023/08/11 08:46:11;;;;;;;6.25;3.13;;;22.10;99.90;;;;;;5061087;28;20036;-66
2023/08/11 08:48:47;;;;;;;7.15;3.20;;;22.40;99.90;;;;;;5053145;28;20044;-69
2023/08/11 08:51:14;;;;;;;10.48;4.43;;;22.50;99.90;;;;;;5055537;28;20043;-66
2023/08/11 08:53:40;;;;;;;7.35;3.60;;;22.50;99.90;;;;;;5050512;28;20036;-66
2023/08/11 08:56:18;;;;;;;5.70;2.38;;;22.50;99.90;;;;;;5062804;28;20102;-66
2023/08/11 08:58:44;;;;;;;6.00;3.30;;;22.10;99.90;;;;;;5063468;28;20051;-67
2023/08/11 09:01:11;;;;;;;9.07;3.63;;;22.80;99.90;;;;;;5061468;28;20052;-68
2023/08/11 09:03:37;;;;;;;9.73;3.75;;;24.40;99.90;;;;;;5067028;28;20049;-66
2023/08/11 09:06:05;;;;;;;5.45;3.25;;;22.80;99.90;;;;;;5065825;28;20040;-66
2023/08/11 09:08:38;;;;;;;12.13;4.15;;;22.70;99.90;;;;;;5068497;28;20208;-65
2023/08/11 09:11:03;;;;;;;6.70;3.70;;;23.10;99.90;;;;;;5064069;28;20065;-70
2023/08/11 09:13:31;;;;;;;5.10;3.13;;;23.10;99.90;;;;;;5068287;28;20037;-68
2023/08/11 09:15:57;;;;;;;6.50;3.35;;;22.90;99.90;;;;;;5047777;28;20040;-71
2023/08/11 09:18:23;;;;;;;7.95;4.43;;;24.10;99.90;;;;;;5066731;28;20402;-69
2023/08/11 09:20:49;;;;;;;5.80;3.33;;;23.00;99.90;;;;;;5065845;28;20048;-69
2023/08/11 09:23:18;;;;;;;6.80;3.50;;;23.30;99.90;;;;;;5048742;28;20044;-69
2023/08/11 09:25:45;;;;;;;7.28;3.28;;;24.30;99.90;;;;;;5045631;28;20048;-69
2023/08/11 09:28:11;;;;;;;6.68;3.13;;;23.20;99.90;;;;;;5049695;28;20074;-68
2023/08/11 09:30:38;;;;;;;6.15;2.85;;;23.30;99.90;;;;;;5063152;28;20041;-67
2023/08/11 09:33:07;;;;;;;6.60;3.40;;;23.20;99.90;;;;;;5047073;28;20766;-66
2023/08/11 09:35:33;;;;;;;5.00;3.05;;;23.70;99.90;;;;;;5060678;28;20481;-66
2023/08/11 09:38:00;;;;;;;7.07;3.25;;;23.40;99.90;;;;;;5042705;28;20060;-66
2023/08/11 09:40:26;;;;;;;4.97;2.95;;;24.00;99.90;;;;;;5060560;28;20048;-66
2023/08/11 09:42:55;;;;;;;7.45;2.85;;;23.80;99.90;;;;;;5048282;28;20739;-66
2023/08/11 09:45:22;;;;;;;5.28;2.33;;;24.90;99.90;;;;;;5059790;28;20072;-68
2023/08/11 09:47:48;;;;;;;5.93;2.58;;;24.80;99.90;;;;;;5042840;28;20052;-66
2023/08/11 09:50:16;;;;;;;5.22;2.55;;;23.90;99.90;;;;;;5060397;28;20039;-67
2023/08/11 09:52:43;;;;;;;3.72;2.40;;;25.00;99.90;;;;;;5027885;28;20048;-67
2023/08/11 09:55:13;;;;;;;8.43;2.70;;;24.30;99.90;;;;;;5065120;28;20059;-67
2023/08/11 09:57:40;;;;;;;8.50;2.92;;;24.10;99.90;;;;;;5055700;28;20040;-67
2023/08/11 10:00:14;;;;;;;3.42;2.08;;;24.20;99.90;;;;;;5065292;28;20094;-67
2023/08/11 10:02:58;;;;;;;3.83;2.37;;;24.20;99.90;;;;;;5026760;28;20048;-67
2023/08/11 10:05:25;;;;;;;7.50;2.35;;;24.20;99.90;;;;;;5046423;28;20045;-67
2023/08/11 10:07:54;;;;;;;6.25;2.63;;;24.50;99.90;;;;;;5062979;28;20086;-70
2023/08/11 10:10:21;;;;;;;6.15;2.42;;;24.60;99.90;;;;;;5048452;28;20048;-71
2023/08/11 10:12:57;;;;;;;7.07;2.78;;;26.90;99.90;;;;;;5046913;28;20111;-66
2023/08/11 10:15:24;;;;;;;3.25;1.73;;;26.10;99.90;;;;;;5035752;28;20077;-66
2023/08/11 10:17:50;;;;;;;7.32;2.38;;;24.90;99.90;;;;;;5066472;28;20785;-67
2023/08/11 10:20:16;;;;;;;6.40;2.65;;;25.90;99.90;;;;;;5058034;28;20127;-67
2023/08/11 10:22:42;;;;;;;5.60;2.42;;;24.50;99.90;;;;;;5063951;28;20076;-66
2023/08/11 10:25:08;;;;;;;5.70;2.67;;;24.50;99.90;;;;;;5064335;28;20080;-67
2023/08/11 10:27:36;;;;;;;5.53;2.42;;;24.90;99.90;;;;;;5059538;28;20452;-67
2023/08/11 10:30:05;;;;;;;3.85;2.03;;;26.40;99.90;;;;;;5053544;28;20069;-67
2023/08/11 10:32:34;;;;;;;5.30;2.28;;;24.90;99.90;;;;;;5061095;28;20056;-66
2023/08/11 10:35:00;;;;;;;4.70;1.75;;;24.90;99.90;;;;;;5041502;28;20045;-67
2023/08/11 10:37:30;;;;;;;3.97;2.22;;;24.80;99.90;;;;;;5035879;28;20409;-66
2023/08/11 10:40:04;;;;;;;5.47;2.50;;;26.70;99.90;;;;;;5058908;28;20079;-68
2023/08/11 10:42:30;;;;;;;;;;;25.00;99.90;;;;;;5042397;28;20155;-68
2023/08/11 10:45:13;;;;;;;6.05;2.17;;;25.10;99.90;;;;;;5038032;28;19924;-67
2023/08/11 10:48:06;;;;;;;6.55;1.90;;;25.40;99.90;;;;;;5055530;28;20063;-67
2023/08/11 10:50:32;;;;;;;7.18;1.95;;;26.10;99.90;;;;;;5028775;28;20521;-67
2023/08/11 10:53:24;;;;;;;5.10;2.60;;;25.30;99.90;;;;;;5055071;28;20033;-67
2023/08/11 10:56:02;;;;;;;7.18;2.40;;;24.90;99.90;;;;;;5054048;28;20052;-67
2023/08/11 10:58:32;;;;;;;5.82;2.05;;;25.10;99.90;;;;;;5064315;28;20040;-67
2023/08/11 11:00:58;;;;;;;5.82;1.77;;;26.80;99.90;;;;;;5042218;28;20048;-68
2023/08/11 11:03:25;;;;;;;5.40;2.58;;;25.20;99.90;;;;;;5055650;28;20168;-68
2023/08/11 11:05:51;;;;;;;6.20;1.33;;;27.00;99.90;;;;;;5062882;28;20703;-67
2023/08/11 11:08:16;;;;;;;4.70;1.83;;;25.20;99.90;;;;;;5046445;28;20123;-67
2023/08/11 11:10:42;;;;;;;5.57;1.77;;;25.40;99.90;;;;;;5040185;28;20040;-69
2023/08/11 11:13:08;;;;;;;3.50;1.58;;;26.30;99.90;;;;;;5060373;28;20064;-69
2023/08/11 11:15:34;;;;;;;3.78;1.70;;;25.40;99.90;;;;;;5056620;28;20137;-69
2023/08/11 11:18:00;;;;;;;4.22;1.80;;;25.70;99.90;;;;;;5065307;28;20060;-70
2023/08/11 11:20:26;;;;;;;7.15;2.22;;;27.20;99.90;;;;;;5040308;28;20045;-71
2023/08/11 11:22:53;;;;;;;4.03;1.50;;;26.80;99.90;;;;;;5035120;28;20047;-69
2023/08/11 11:25:19;;;;;;;5.43;2.05;;;25.40;99.90;;;;;;5065397;28;20049;-70
2023/08/11 11:27:45;;;;;;;6.40;2.45;;;25.50;99.90;;;;;;5062725;28;20032;-70
2023/08/11 11:30:11;;;;;;;6.13;1.85;;;27.50;99.90;;;;;;5042480;28;20162;-69
2023/08/11 11:32:38;;;;;;;5.13;1.95;;;25.70;99.90;;;;;;5065250;28;20036;-69
2023/08/11 11:35:07;;;;;;;3.55;1.80;;;27.00;99.90;;;;;;5061020;28;20044;-70
2023/08/11 11:37:33;;;;;;;4.32;2.20;;;25.50;99.90;;;;;;5046099;28;20044;-71
2023/08/11 11:40:03;;;;;;;3.83;1.70;;;25.50;99.90;;;;;;5059447;28;20060;-71
2023/08/11 11:42:31;;;;;;;4.28;2.13;;;27.80;99.90;;;;;;5044317;28;20631;-70
2023/08/11 11:44:58;;;;;;;4.10;1.85;;;25.70;99.90;;;;;;5064453;28;20075;-70
2023/08/11 11:47:24;;;;;;;5.68;1.85;;;27.40;99.90;;;;;;5057460;28;20127;-69
2023/08/11 11:49:56;;;;;;;5.20;1.92;;;27.60;99.90;;;;;;5056900;28;20152;-71
2023/08/11 11:52:22;;;;;;;5.20;2.50;;;26.00;99.90;;;;;;5063934;28;20695;-72
2023/08/11 11:55:06;;;;;;;3.50;1.83;;;27.50;99.90;;;;;;5037363;28;20048;-71
2023/08/11 11:57:31;;;;;;;4.13;1.70;;;25.90;99.90;;;;;;5056550;28;20055;-69
2023/08/11 11:59:57;;;;;;;4.20;2.17;;;26.60;99.90;;;;;;5061086;28;20041;-70
2023/08/11 12:02:22;;;;;;;3.65;1.60;;;25.90;99.90;;;;;;5039698;28;20055;-71
2023/08/11 12:04:48;;;;;;;6.70;2.28;;;25.80;99.90;;;;;;5053955;28;20041;-70
2023/08/11 12:07:33;;;;;;;7.07;2.78;;;28.20;99.90;;;;;;5038861;28;20040;-69
2023/08/11 12:10:00;;;;;;;5.70;2.13;;;25.80;99.90;;;;;;5058819;28;20090;-70
2023/08/11 12:12:28;;;;;;;7.25;2.30;;;25.70;99.90;;;;;;5029290;28;20068;-71
2023/08/11 12:15:05;;;;;;;9.40;2.60;;;27.40;99.90;;;;;;5042761;28;20117;-70
2023/08/11 12:17:33;;;;;;;6.85;2.28;;;25.90;99.90;;;;;;5030079;28;20420;-70
2023/08/11 12:20:03;;;;;;;4.55;2.47;;;25.70;99.90;;;;;;5050740;28;20541;-71
2023/08/11 12:22:29;;;;;;;5.30;2.40;;;27.90;99.90;;;;;;5041994;28;20044;-70
2023/08/11 12:24:54;;;;;;;3.92;1.90;;;27.70;99.90;;;;;;5041251;28;20048;-71
2023/08/11 12:27:20;;;;;;;4.85;1.92;;;26.10;99.90;;;;;;5043357;28;20040;-70
2023/08/11 12:29:46;;;;;;;6.90;2.47;;;25.70;99.90;;;;;;5038197;28;20619;-71
2023/08/11 12:32:12;;;;;;;5.18;2.80;;;26.80;99.90;;;;;;5060753;28;20037;-70
2023/08/11 12:34:38;;;;;;;6.80;2.30;;;25.60;99.90;;;;;;5066629;28;20097;-71
2023/08/11 12:37:04;;;;;;;4.68;2.53;;;25.50;99.90;;;;;;5044065;28;20037;-72
2023/08/11 12:39:29;;;;;;;5.13;2.15;;;26.10;99.90;;;;;;5043488;28;20083;-71
2023/08/11 12:41:55;;;;;;;5.95;2.33;;;26.80;99.90;;;;;;5066055;28;20079;-70
2023/08/11 12:44:20;;;;;;;6.63;2.47;;;26.00;99.90;;;;;;5056055;28;20041;-70
2023/08/11 12:46:46;;;;;;;3.78;2.10;;;25.90;99.90;;;;;;5038017;28;20048;-70
2023/08/11 12:49:12;;;;;;;4.20;1.88;;;25.80;99.90;;;;;;5054352;28;20135;-71
2023/08/11 12:51:37;;;;;;;5.72;1.90;;;26.00;99.90;;;;;;5042308;28;20041;-71
2023/08/11 12:54:03;;;;;;;7.63;2.28;;;26.00;99.90;;;;;;5058094;28;20124;-70
2023/08/11 12:56:28;;;;;;;7.93;2.10;;;27.80;99.90;;;;;;5043387;28;20041;-70
2023/08/11 12:58:54;;;;;;;8.23;2.08;;;28.00;99.90;;;;;;5049844;28;20035;-71
2023/08/11 13:01:19;;;;;;;5.18;1.63;;;27.00;99.90;;;;;;5045870;28;20463;-71
2023/08/11 13:03:45;;;;;;;6.13;2.22;;;26.00;99.90;;;;;;5064611;28;20051;-72
2023/08/11 13:06:11;;;;;;;5.38;2.00;;;27.70;99.90;;;;;;5066114;28;20046;-72
2023/08/11 13:08:36;;;;;;;5.13;2.05;;;28.20;99.90;;;;;;5062317;28;20120;-72